Time;durP1;ratioP1;P1;durP2;ratioP2;P2;SDS_P1;SDS_P2;PMS_P1;PMS_P2;Temp;Humidity;BMP_temperature;BMP_pressure;BME280_temperature;BME280_humidity;BME280_pressure;Samples;Min_cycle;Max_cycle;Signal;HPM_P1;HPM_P2
2023/08/08 00:00:45;;;;;;;5.57;2.17;;;13.10;99.90;;;;;;4992159;28;20041;-73
2023/08/08 00:03:31;;;;;;;4.82;1.70;;;13.00;99.90;;;;;;4976219;28;20038;-74
2023/08/08 00:06:17;;;;;;;5.35;2.20;;;13.10;99.90;;;;;;4966524;28;20122;-74
2023/08/08 00:09:04;;;;;;;5.68;1.88;;;13.00;99.90;;;;;;4988141;28;20042;-73
2023/08/08 00:11:50;;;;;;;5.28;2.65;;;13.00;99.90;;;;;;4978058;28;20038;-74
2023/08/08 00:14:35;;;;;;;4.38;1.95;;;13.10;99.90;;;;;;4972948;28;20041;-73
2023/08/08 00:17:25;;;;;;;7.60;2.40;;;13.10;99.90;;;;;;4985039;28;20037;-73
2023/08/08 00:20:11;;;;;;;8.25;1.98;;;13.10;99.90;;;;;;5013758;28;20526;-74
2023/08/08 00:22:57;;;;;;;7.88;2.30;;;13.00;99.90;;;;;;5000991;28;20798;-74
2023/08/08 00:25:43;;;;;;;8.88;2.67;;;13.00;99.90;;;;;;5008412;28;20051;-73
2023/08/08 00:28:29;;;;;;;5.22;2.30;;;13.00;99.90;;;;;;4996316;28;20477;-73
2023/08/08 00:31:17;;;;;;;6.55;2.40;;;13.00;99.90;;;;;;4997735;28;20045;-73
2023/08/08 00:34:04;;;;;;;6.50;2.67;;;13.00;99.90;;;;;;4975356;28;20107;-74
2023/08/08 00:36:49;;;;;;;7.05;2.40;;;13.00;99.90;;;;;;4997597;28;20034;-73
2023/08/08 00:39:35;;;;;;;5.55;2.60;;;13.00;99.90;;;;;;4983979;28;20513;-74
2023/08/08 00:42:21;;;;;;;10.77;2.58;;;13.00;99.90;;;;;;4998240;28;20034;-73
2023/08/08 00:45:08;;;;;;;6.10;2.20;;;13.00;99.90;;;;;;4990533;28;20367;-73
2023/08/08 00:47:54;;;;;;;6.38;2.22;;;12.90;99.90;;;;;;4997536;28;20045;-74
2023/08/08 00:50:42;;;;;;;7.10;2.60;;;13.00;99.90;;;;;;5016297;28;20042;-74
2023/08/08 00:53:30;;;;;;;4.50;2.10;;;13.00;99.90;;;;;;5007215;28;20040;-73
2023/08/08 00:56:17;;;;;;;5.72;2.78;;;13.00;99.90;;;;;;4978165;28;20053;-74
2023/08/08 00:59:03;;;;;;;6.35;2.22;;;13.00;99.90;;;;;;4999299;28;21025;-74
2023/08/08 01:01:49;;;;;;;9.52;2.38;;;12.90;99.90;;;;;;4980530;28;20408;-74
2023/08/08 01:04:35;;;;;;;5.05;2.28;;;13.00;99.90;;;;;;4984434;28;20132;-73
2023/08/08 01:07:37;;;;;;;6.32;2.75;;;13.00;99.90;;;;;;4992206;28;20053;-74
2023/08/08 01:10:27;;;;;;;9.18;2.70;;;12.90;99.90;;;;;;4985378;28;20092;-74
2023/08/08 01:13:18;;;;;;;6.07;2.03;;;12.90;99.90;;;;;;4984505;28;20436;-74
2023/08/08 01:16:04;;;;;;;6.85;2.72;;;12.90;99.90;;;;;;4971213;28;20042;-74
2023/08/08 01:18:50;;;;;;;8.65;3.00;;;12.90;99.90;;;;;;4995257;28;20493;-74
2023/08/08 01:21:37;;;;;;;6.82;2.47;;;12.90;99.90;;;;;;5017298;28;20041;-73
2023/08/08 01:24:25;;;;;;;7.50;2.38;;;12.90;99.90;;;;;;5001015;28;20053;-74
2023/08/08 01:27:11;;;;;;;10.05;2.60;;;12.90;99.90;;;;;;4976110;28;20053;-74
2023/08/08 01:29:57;;;;;;;9.18;2.65;;;12.90;99.90;;;;;;4996391;28;20120;-74
2023/08/08 01:32:43;;;;;;;5.03;2.35;;;12.90;99.90;;;;;;4983003;28;20167;-73
2023/08/08 01:35:31;;;;;;;6.15;2.70;;;12.90;99.90;;;;;;4999966;28;20543;-74
2023/08/08 01:38:36;;;;;;;9.35;2.70;;;12.90;99.90;;;;;;5007499;28;20041;-74
2023/08/08 01:41:22;;;;;;;9.77;2.92;;;12.90;99.90;;;;;;5016804;28;20116;-74
2023/08/08 01:44:08;;;;;;;6.60;2.55;;;12.90;99.90;;;;;;5016455;28;20041;-74
2023/08/08 01:46:54;;;;;;;6.00;2.65;;;13.00;99.90;;;;;;4996739;28;20105;-74
2023/08/08 01:49:40;;;;;;;6.25;2.33;;;12.90;99.90;;;;;;4976581;28;20050;-74
2023/08/08 01:52:27;;;;;;;8.13;2.15;;;13.00;99.90;;;;;;4964054;28;20039;-74
2023/08/08 01:55:13;;;;;;;6.88;2.85;;;12.90;99.90;;;;;;4954220;28;20166;-74
2023/08/08 01:57:59;;;;;;;8.48;2.60;;;13.00;99.90;;;;;;5002920;28;20049;-74
2023/08/08 02:00:46;;;;;;;6.60;2.53;;;12.90;99.90;;;;;;4993220;28;20524;-73
2023/08/08 02:03:32;;;;;;;5.83;2.90;;;13.00;99.90;;;;;;4996385;28;20077;-74
2023/08/08 02:06:18;;;;;;;6.40;2.35;;;13.00;99.90;;;;;;4971748;28;20390;-74
2023/08/08 02:09:04;;;;;;;6.45;2.33;;;13.00;99.90;;;;;;4988695;28;20042;-74
2023/08/08 02:11:50;;;;;;;4.22;2.30;;;13.00;99.90;;;;;;4998828;28;20038;-74
2023/08/08 02:14:36;;;;;;;3.90;2.00;;;13.00;99.90;;;;;;4973312;28;20041;-73
2023/08/08 02:17:22;;;;;;;5.80;2.78;;;13.00;99.90;;;;;;5012651;28;20697;-74
2023/08/08 02:20:08;;;;;;;6.80;2.22;;;13.00;99.90;;;;;;4995201;28;20041;-74
2023/08/08 02:22:54;;;;;;;6.07;2.72;;;13.00;99.90;;;;;;4991014;28;20041;-74
2023/08/08 02:25:41;;;;;;;5.85;2.70;;;13.00;99.90;;;;;;5008553;28;20053;-74
2023/08/08 02:28:27;;;;;;;6.05;2.38;;;13.00;99.90;;;;;;5011029;28;20068;-74
2023/08/08 02:31:14;;;;;;;5.13;2.22;;;13.00;99.90;;;;;;4978085;28;20044;-74
2023/08/08 02:34:00;;;;;;;8.48;2.50;;;13.00;99.90;;;;;;5010053;28;20044;-74
2023/08/08 02:36:46;;;;;;;4.70;2.13;;;13.00;99.90;;;;;;4977594;28;20050;-74
2023/08/08 02:39:33;;;;;;;6.25;2.70;;;13.00;99.90;;;;;;4981702;28;20715;-74
2023/08/08 02:42:19;;;;;;;5.90;3.10;;;13.00;99.90;;;;;;5004445;28;20048;-73
2023/08/08 02:45:06;;;;;;;7.38;2.47;;;13.00;99.90;;;;;;4986582;28;20042;-74
2023/08/08 02:47:52;;;;;;;5.65;2.30;;;13.00;99.90;;;;;;5001468;28;20043;-74
2023/08/08 02:50:38;;;;;;;6.70;3.13;;;13.10;99.90;;;;;;5011510;28;20466;-74
2023/08/08 02:53:24;;;;;;;4.50;2.83;;;13.10;99.90;;;;;;5002502;28;20033;-74
2023/08/08 02:56:10;;;;;;;5.97;2.40;;;13.10;99.90;;;;;;4988069;28;20463;-74
2023/08/08 02:58:56;;;;;;;6.57;2.95;;;13.20;99.90;;;;;;4986343;28;20033;-74
2023/08/08 03:01:42;;;;;;;4.18;2.38;;;13.20;99.90;;;;;;4987490;28;20049;-74
2023/08/08 03:04:28;;;;;;;7.95;2.75;;;13.10;99.90;;;;;;4993536;28;20034;-74
2023/08/08 03:07:13;;;;;;;5.55;2.25;;;13.20;99.90;;;;;;4997869;28;20042;-74
2023/08/08 03:09:59;;;;;;;5.70;2.40;;;13.20;99.90;;;;;;4966501;28;20050;-74
2023/08/08 03:12:45;;;;;;;6.40;2.55;;;13.20;99.90;;;;;;4983500;28;20030;-74
2023/08/08 03:15:31;;;;;;;5.55;2.58;;;13.20;99.90;;;;;;4985671;28;20068;-74
2023/08/08 03:18:17;;;;;;;6.28;2.95;;;13.20;99.90;;;;;;4981671;28;20037;-74
2023/08/08 03:21:03;;;;;;;8.55;2.92;;;13.20;99.90;;;;;;5015769;28;20045;-74
2023/08/08 03:23:49;;;;;;;6.82;2.67;;;13.30;99.90;;;;;;4988598;28;20041;-74
2023/08/08 03:26:35;;;;;;;6.43;2.90;;;13.30;99.90;;;;;;4996620;28;20085;-74
2023/08/08 03:29:21;;;;;;;4.93;2.70;;;13.30;99.90;;;;;;4975433;28;20099;-75
2023/08/08 03:32:07;;;;;;;7.35;3.00;;;13.30;99.90;;;;;;4991978;28;20038;-75
2023/08/08 03:34:53;;;;;;;9.35;3.13;;;13.30;99.90;;;;;;5004557;28;20033;-74
2023/08/08 03:37:39;;;;;;;6.13;3.28;;;13.20;99.90;;;;;;5000328;28;20107;-74
2023/08/08 03:40:25;;;;;;;6.07;2.92;;;13.20;99.90;;;;;;4996826;28;20041;-74
2023/08/08 03:43:11;;;;;;;6.90;3.55;;;13.20;99.90;;;;;;5005624;28;20042;-74
2023/08/08 03:45:58;;;;;;;6.13;3.03;;;13.30;99.90;;;;;;4980081;28;20053;-74
2023/08/08 03:48:44;;;;;;;8.20;2.93;;;13.20;99.90;;;;;;4991377;28;20112;-74
2023/08/08 03:51:30;;;;;;;7.53;3.63;;;13.20;99.90;;;;;;5005928;28;20038;-75
2023/08/08 03:54:17;;;;;;;10.55;3.15;;;13.20;99.90;;;;;;4971064;28;20050;-76
2023/08/08 03:57:03;;;;;;;7.95;2.80;;;13.20;99.90;;;;;;4985531;28;20049;-75
2023/08/08 03:59:49;;;;;;;7.65;3.22;;;13.20;99.90;;;;;;5008394;28;20092;-76
2023/08/08 04:02:35;;;;;;;7.53;3.00;;;13.20;99.90;;;;;;5009012;28;20410;-75
2023/08/08 04:05:21;;;;;;;6.22;3.33;;;13.30;99.90;;;;;;4982574;28;20441;-75
2023/08/08 04:08:07;;;;;;;5.95;3.33;;;13.30;99.90;;;;;;5002325;28;20039;-75
2023/08/08 04:10:54;;;;;;;7.70;2.88;;;13.30;99.90;;;;;;4973296;28;20378;-75
2023/08/08 04:13:40;;;;;;;6.82;3.17;;;13.30;99.90;;;;;;4968018;28;20049;-75
2023/08/08 04:16:26;;;;;;;7.15;2.65;;;13.30;99.90;;;;;;4997905;28;20042;-75
2023/08/08 04:19:12;;;;;;;11.60;3.53;;;13.30;99.90;;;;;;4998252;28;20073;-75
2023/08/08 04:21:58;;;;;;;9.88;3.42;;;13.30;99.90;;;;;;4986359;28;20103;-75
2023/08/08 04:24:44;;;;;;;6.35;3.05;;;13.40;99.90;;;;;;4977941;28;20034;-75
2023/08/08 04:27:30;;;;;;;7.72;2.83;;;13.50;99.90;;;;;;4967275;28;20135;-75
2023/08/08 04:30:16;;;;;;;7.82;2.95;;;13.50;99.90;;;;;;5002269;28;20040;-75
2023/08/08 04:33:02;;;;;;;9.30;3.13;;;13.50;99.90;;;;;;5008879;28;20446;-75
2023/08/08 04:35:48;;;;;;;5.57;3.53;;;13.50;99.90;;;;;;4982058;28;20042;-75
2023/08/08 04:38:34;;;;;;;6.88;2.97;;;13.50;99.90;;;;;;4972319;28;20128;-75
2023/08/08 04:41:20;;;;;;;6.82;3.05;;;13.50;99.90;;;;;;4984747;28;20044;-75
2023/08/08 04:44:06;;;;;;;6.88;3.00;;;13.50;99.90;;;;;;4958256;28;20061;-75
2023/08/08 04:46:52;;;;;;;8.48;3.00;;;13.60;99.90;;;;;;4959351;28;20537;-75
2023/08/08 04:49:37;;;;;;;7.22;2.63;;;13.60;99.90;;;;;;4987777;28;20057;-75
2023/08/08 04:52:23;;;;;;;5.85;3.15;;;13.60;99.90;;;;;;4985310;28;20427;-74
2023/08/08 04:55:10;;;;;;;5.15;2.83;;;13.60;99.90;;;;;;4997710;28;20070;-75
2023/08/08 04:57:55;;;;;;;9.73;3.70;;;13.70;99.90;;;;;;5017079;28;20045;-75
2023/08/08 05:00:41;;;;;;;8.45;2.97;;;13.70;99.90;;;;;;5018514;28;20068;-75
2023/08/08 05:03:27;;;;;;;8.75;3.28;;;13.70;99.90;;;;;;4970729;28;20080;-75
2023/08/08 05:06:13;;;;;;;4.80;2.60;;;13.80;99.90;;;;;;4986520;28;20473;-75
2023/08/08 05:08:59;;;;;;;4.88;2.53;;;13.70;99.90;;;;;;5000370;28;20048;-75
2023/08/08 05:11:46;;;;;;;6.63;2.80;;;13.80;99.90;;;;;;4973705;28;20038;-74
2023/08/08 05:14:32;;;;;;;5.63;2.65;;;13.80;99.90;;;;;;4972066;28;20715;-75
2023/08/08 05:17:18;;;;;;;7.00;2.92;;;13.80;99.90;;;;;;5017993;28;20083;-75
2023/08/08 05:20:04;;;;;;;7.93;2.95;;;13.70;99.90;;;;;;5017526;28;20033;-75
2023/08/08 05:22:52;;;;;;;6.70;2.80;;;13.70;99.90;;;;;;4997855;28;20502;-75
2023/08/08 05:25:37;;;;;;;6.30;2.50;;;13.80;99.90;;;;;;4989889;28;20337;-75
2023/08/08 05:28:23;;;;;;;5.93;2.70;;;13.80;99.90;;;;;;4970621;28;20064;-75
2023/08/08 05:31:10;;;;;;;7.97;2.63;;;13.90;99.90;;;;;;4971208;28;20050;-75
2023/08/08 05:33:56;;;;;;;5.85;2.20;;;13.90;99.90;;;;;;4969770;28;20038;-75
2023/08/08 05:36:42;;;;;;;7.43;2.60;;;13.80;99.90;;;;;;4969470;28;20053;-75
2023/08/08 05:39:30;;;;;;;7.03;3.03;;;13.90;99.90;;;;;;4973995;28;20144;-75
2023/08/08 05:42:16;;;;;;;7.63;2.80;;;13.90;99.90;;;;;;4988892;28;20037;-75
2023/08/08 05:45:03;;;;;;;8.00;2.65;;;13.80;99.90;;;;;;4959174;28;20058;-75
2023/08/08 05:47:49;;;;;;;6.25;2.63;;;13.90;99.90;;;;;;4975621;28;20446;-75
2023/08/08 05:50:37;;;;;;;6.28;2.63;;;13.90;99.90;;;;;;4956932;28;20070;-75
2023/08/08 05:53:24;;;;;;;5.80;2.38;;;14.00;99.90;;;;;;4969237;28;20100;-75
2023/08/08 05:56:11;;;;;;;4.50;2.38;;;14.00;99.90;;;;;;4980738;28;20068;-76
2023/08/08 05:58:57;;;;;;;5.35;2.45;;;14.00;99.90;;;;;;4968714;28;20046;-75
2023/08/08 06:01:44;;;;;;;4.05;2.13;;;14.00;99.90;;;;;;4995516;28;20788;-75
2023/08/08 06:04:30;;;;;;;6.47;2.50;;;14.10;99.90;;;;;;4969110;28;20038;-75
2023/08/08 06:07:16;;;;;;;6.85;2.30;;;14.00;99.90;;;;;;4955876;28;20046;-74
2023/08/08 06:10:02;;;;;;;5.22;2.58;;;14.10;99.90;;;;;;4968188;28;20042;-75
2023/08/08 06:12:48;;;;;;;6.00;2.53;;;14.20;99.90;;;;;;4968914;28;20181;-75
2023/08/08 06:15:34;;;;;;;5.60;2.92;;;14.20;99.90;;;;;;4978648;28;20419;-75
2023/08/08 06:18:20;;;;;;;12.73;2.90;;;14.20;99.90;;;;;;4968574;28;20042;-75
2023/08/08 06:21:06;;;;;;;5.80;2.40;;;14.30;99.90;;;;;;4968758;28;20052;-75
2023/08/08 06:23:54;;;;;;;6.43;2.63;;;14.30;99.90;;;;;;4981916;28;20379;-75
2023/08/08 06:26:40;;;;;;;6.13;2.65;;;14.40;99.90;;;;;;4983597;28;20061;-75
2023/08/08 06:29:27;;;;;;;7.82;3.08;;;14.40;99.90;;;;;;4971508;28;20034;-75
2023/08/08 06:32:13;;;;;;;8.48;3.70;;;14.40;99.90;;;;;;4980895;28;20411;-74
2023/08/08 06:35:00;;;;;;;8.95;2.95;;;14.40;99.90;;;;;;4981863;28;20549;-74
2023/08/08 06:37:45;;;;;;;5.20;2.83;;;14.40;99.90;;;;;;4968436;28;20035;-76
2023/08/08 06:40:31;;;;;;;5.43;2.63;;;14.50;99.90;;;;;;4977273;28;20073;-75
2023/08/08 06:43:18;;;;;;;8.18;3.03;;;14.50;99.90;;;;;;4962571;28;20471;-74
2023/08/08 06:46:04;;;;;;;8.75;2.63;;;14.60;99.90;;;;;;4976189;28;20045;-75
2023/08/08 06:48:56;;;;;;;6.07;3.30;;;14.70;99.90;;;;;;4986721;28;20479;-74
2023/08/08 06:51:42;;;;;;;5.72;2.80;;;14.70;99.90;;;;;;4971715;28;20037;-74
2023/08/08 06:54:28;;;;;;;8.00;3.60;;;14.70;99.90;;;;;;4977732;28;20042;-74
2023/08/08 06:57:15;;;;;;;8.38;3.47;;;14.70;99.90;;;;;;4996955;28;20077;-75
2023/08/08 07:00:05;;;;;;;7.53;3.40;;;14.60;99.90;;;;;;4998992;28;20324;-75
2023/08/08 07:02:51;;;;;;;8.40;3.20;;;14.60;99.90;;;;;;4970433;28;20049;-75
2023/08/08 07:05:39;;;;;;;6.45;3.70;;;14.60;99.90;;;;;;4997226;28;20794;-76
2023/08/08 07:08:25;;;;;;;;;;;14.60;99.90;;;;;;4997188;28;20049;-76
2023/08/08 07:11:11;;;;;;;9.35;3.30;;;14.70;99.90;;;;;;4997148;28;19925;-76
2023/08/08 07:13:57;;;;;;;5.53;3.53;;;14.70;99.90;;;;;;4980223;28;20498;-76
2023/08/08 07:16:43;;;;;;;10.98;3.33;;;14.90;99.90;;;;;;4986499;28;20371;-76
2023/08/08 07:19:29;;;;;;;7.70;3.63;;;15.00;99.90;;;;;;4967610;28;20042;-75
2023/08/08 07:22:15;;;;;;;5.55;3.42;;;15.00;99.90;;;;;;4987463;28;20050;-75
2023/08/08 07:25:02;;;;;;;7.93;3.45;;;15.10;99.90;;;;;;4978178;28;20049;-75
2023/08/08 07:27:48;;;;;;;6.20;3.58;;;15.20;99.90;;;;;;5001180;28;20045;-75
2023/08/08 07:30:34;;;;;;;6.45;2.97;;;15.30;99.90;;;;;;4986358;28;20034;-75
2023/08/08 07:33:20;;;;;;;6.43;3.30;;;15.40;99.90;;;;;;4998759;28;20034;-75
2023/08/08 07:36:06;;;;;;;6.50;3.28;;;15.30;99.90;;;;;;4992493;28;20099;-75
2023/08/08 07:38:52;;;;;;;7.07;3.40;;;15.40;99.90;;;;;;4985855;28;20053;-75
2023/08/08 07:41:38;;;;;;;8.90;3.35;;;15.30;99.90;;;;;;4972396;28;20042;-75
2023/08/08 07:44:24;;;;;;;9.43;3.42;;;15.40;99.90;;;;;;4972524;28;20045;-75
2023/08/08 07:47:10;;;;;;;7.47;3.38;;;15.40;99.90;;;;;;4966820;28;20157;-75
2023/08/08 07:49:56;;;;;;;11.18;3.58;;;15.50;99.90;;;;;;4983240;28;20108;-75
2023/08/08 07:52:42;;;;;;;7.53;2.97;;;15.60;99.90;;;;;;4984876;28;20057;-75
2023/08/08 07:55:28;;;;;;;8.95;3.97;;;15.60;99.90;;;;;;4975298;28;20518;-74
2023/08/08 07:58:14;;;;;;;9.23;3.90;;;15.70;99.90;;;;;;4993319;28;20045;-75
2023/08/08 08:01:00;;;;;;;7.72;3.70;;;15.70;99.90;;;;;;4969380;28;20053;-75
2023/08/08 08:03:46;;;;;;;7.85;4.20;;;15.80;99.90;;;;;;4966341;28;20085;-76
2023/08/08 08:06:32;;;;;;;12.85;3.97;;;15.90;99.90;;;;;;4997639;28;20777;-75
2023/08/08 08:09:18;;;;;;;9.23;3.47;;;15.90;99.90;;;;;;4973487;28;20049;-75
2023/08/08 08:12:25;;;;;;;7.18;3.28;;;16.00;99.90;;;;;;4994857;28;20038;-75
2023/08/08 08:15:13;;;;;;;9.77;3.90;;;16.20;99.90;;;;;;4971562;28;20046;-75
2023/08/08 08:17:59;;;;;;;8.13;4.20;;;16.20;99.90;;;;;;4966655;28;20057;-75
2023/08/08 08:20:45;;;;;;;6.82;3.83;;;16.30;99.90;;;;;;4966755;28;20042;-75
2023/08/08 08:23:32;;;;;;;7.32;3.45;;;16.30;99.90;;;;;;4953786;28;20490;-76
2023/08/08 08:26:18;;;;;;;7.28;2.95;;;16.30;99.90;;;;;;4979901;28;20344;-76
2023/08/08 08:29:04;;;;;;;6.75;3.00;;;16.40;99.90;;;;;;4993898;28;20049;-76
2023/08/08 08:31:50;;;;;;;11.07;3.28;;;16.30;99.90;;;;;;4967157;28;20097;-76
2023/08/08 08:34:36;;;;;;;4.10;2.35;;;16.20;99.90;;;;;;4966544;28;20380;-76
2023/08/08 08:37:22;;;;;;;7.07;3.20;;;16.10;99.90;;;;;;4993659;28;20046;-76
2023/08/08 08:40:09;;;;;;;6.40;2.63;;;16.20;99.90;;;;;;4981799;28;20463;-75
2023/08/08 08:42:55;;;;;;;4.75;2.60;;;16.30;99.90;;;;;;4980636;28;20046;-75
2023/08/08 08:45:41;;;;;;;8.70;3.30;;;16.40;99.90;;;;;;4992321;28;20050;-76
2023/08/08 08:48:27;;;;;;;6.20;2.53;;;16.50;99.90;;;;;;4966630;28;20038;-76
2023/08/08 08:51:15;;;;;;;6.72;2.38;;;16.70;99.90;;;;;;4982351;28;20496;-76
2023/08/08 08:54:01;;;;;;;6.45;2.40;;;16.80;99.90;;;;;;4973299;28;20073;-76
2023/08/08 08:56:47;;;;;;;5.18;1.90;;;16.90;99.90;;;;;;4977239;28;20544;-75
2023/08/08 08:59:32;;;;;;;5.03;2.20;;;16.90;99.90;;;;;;4952126;28;20042;-77
2023/08/08 09:02:19;;;;;;;5.30;1.95;;;16.80;99.90;;;;;;4977611;28;20116;-76
2023/08/08 09:05:05;;;;;;;5.25;2.20;;;16.90;99.90;;;;;;4970566;28;20041;-76
2023/08/08 09:07:51;;;;;;;6.40;2.10;;;17.00;99.90;;;;;;4966516;28;20374;-75
2023/08/08 09:10:37;;;;;;;3.50;2.28;;;16.90;99.90;;;;;;4966650;28;20030;-77
2023/08/08 09:13:26;;;;;;;4.18;1.98;;;16.90;99.90;;;;;;4967378;28;20046;-76
2023/08/08 09:16:12;;;;;;;5.65;2.35;;;17.10;99.90;;;;;;4954678;28;20046;-77
2023/08/08 09:18:58;;;;;;;4.38;1.80;;;17.20;99.90;;;;;;4961438;28;20131;-77
2023/08/08 09:21:44;;;;;;;4.50;1.95;;;17.40;99.90;;;;;;4998476;28;20034;-76
2023/08/08 09:24:30;;;;;;;6.68;1.95;;;17.40;99.90;;;;;;4970065;28;20489;-76
2023/08/08 09:27:16;;;;;;;5.95;2.15;;;17.40;99.90;;;;;;4985943;28;20080;-75
2023/08/08 09:30:02;;;;;;;6.53;2.38;;;17.10;99.90;;;;;;4976696;28;20042;-75
2023/08/08 09:32:50;;;;;;;5.03;2.30;;;17.10;99.90;;;;;;4965037;28;20096;-75
2023/08/08 09:35:38;;;;;;;5.18;3.10;;;16.90;99.90;;;;;;4967024;28;20045;-75
2023/08/08 09:38:24;;;;;;;6.75;2.83;;;17.00;99.90;;;;;;4978695;28;20038;-76
2023/08/08 09:41:10;;;;;;;8.32;2.50;;;17.00;99.90;;;;;;4998138;28;20536;-76
2023/08/08 09:43:58;;;;;;;7.30;2.55;;;17.00;99.90;;;;;;4983914;28;20343;-76
2023/08/08 09:46:44;;;;;;;5.73;2.43;;;17.10;99.90;;;;;;4964497;28;20042;-75
2023/08/08 09:49:34;;;;;;;7.35;2.70;;;16.90;99.90;;;;;;4985209;28;20280;-75
2023/08/08 09:52:21;;;;;;;5.68;2.55;;;16.60;99.90;;;;;;4980111;28;20039;-75
2023/08/08 09:55:07;;;;;;;7.60;2.63;;;16.70;99.90;;;;;;4970337;28;20386;-74
2023/08/08 09:57:53;;;;;;;8.77;2.72;;;16.60;99.90;;;;;;4997305;28;20057;-76
2023/08/08 10:00:39;;;;;;;5.63;2.53;;;16.40;99.90;;;;;;4985031;28;20069;-76
2023/08/08 10:03:26;;;;;;;5.95;2.72;;;16.30;99.90;;;;;;4999788;28;20041;-76
2023/08/08 10:06:14;;;;;;;3.93;2.37;;;16.30;99.90;;;;;;4980301;28;20125;-77
2023/08/08 10:09:01;;;;;;;5.80;2.60;;;16.50;99.90;;;;;;4978903;28;20269;-76
2023/08/08 10:11:47;;;;;;;9.27;3.03;;;16.70;99.90;;;;;;4965722;28;20034;-77
2023/08/08 10:14:36;;;;;;;6.35;2.95;;;16.90;99.90;;;;;;4991564;28;20038;-78
2023/08/08 10:17:23;;;;;;;10.85;3.30;;;16.90;99.90;;;;;;4991985;28;20105;-77
2023/08/08 10:20:12;;;;;;;7.18;2.80;;;16.80;99.90;;;;;;4986023;28;20092;-77
2023/08/08 10:22:58;;;;;;;7.85;2.90;;;17.30;99.90;;;;;;4988584;28;20386;-77
2023/08/08 10:25:49;;;;;;;7.18;2.70;;;17.70;99.90;;;;;;4973942;28;20052;-77
2023/08/08 10:28:35;;;;;;;9.10;3.10;;;17.60;99.90;;;;;;4975907;28;20049;-77
2023/08/08 10:31:21;;;;;;;7.85;2.85;;;17.20;99.90;;;;;;4982291;28;20104;-77
2023/08/08 10:34:09;;;;;;;8.45;3.60;;;17.20;99.90;;;;;;4982440;28;20117;-77
2023/08/08 10:36:57;;;;;;;;;;;17.10;99.90;;;;;;4983395;28;20050;-77
2023/08/08 10:39:53;;;;;;;5.93;3.03;;;17.00;99.90;;;;;;4985132;28;20006;-75
2023/08/08 10:42:43;;;;;;;5.80;3.10;;;17.00;99.90;;;;;;4988934;28;20130;-76
2023/08/08 10:45:30;;;;;;;9.30;3.45;;;16.90;99.90;;;;;;4971689;28;20104;-76
2023/08/08 10:48:18;;;;;;;7.72;3.50;;;16.90;99.90;;;;;;4968578;28;20050;-74
2023/08/08 10:51:07;;;;;;;5.38;3.40;;;16.80;99.90;;;;;;4977798;28;20058;-76
2023/08/08 10:53:53;;;;;;;7.10;3.47;;;16.80;99.90;;;;;;4982829;28;20044;-76
2023/08/08 10:56:39;;;;;;;5.22;3.30;;;16.80;99.90;;;;;;5001834;28;20046;-76
2023/08/08 10:59:36;;;;;;;5.88;3.13;;;16.80;99.90;;;;;;4959386;28;20470;-76
2023/08/08 11:02:22;;;;;;;6.45;3.25;;;16.90;99.90;;;;;;4987700;28;20080;-77
2023/08/08 11:05:09;;;;;;;6.28;3.03;;;17.00;99.90;;;;;;4970762;28;20473;-77
2023/08/08 11:07:55;;;;;;;8.50;3.67;;;17.10;99.90;;;;;;4967716;28;20038;-76
2023/08/08 11:10:42;;;;;;;8.50;3.20;;;17.30;99.90;;;;;;4982373;28;20048;-77
2023/08/08 11:13:28;;;;;;;6.75;3.40;;;17.20;99.90;;;;;;4967004;28;20034;-76
2023/08/08 11:16:14;;;;;;;8.43;3.35;;;17.40;99.90;;;;;;4967192;28;20053;-75
2023/08/08 11:19:00;;;;;;;6.97;3.17;;;17.70;99.90;;;;;;4967583;28;20359;-77
2023/08/08 11:21:47;;;;;;;4.78;3.05;;;18.00;99.90;;;;;;4953891;28;20042;-76
2023/08/08 11:24:39;;;;;;;10.23;3.28;;;18.00;99.90;;;;;;4975885;28;20344;-76
2023/08/08 11:27:26;;;;;;;13.05;3.97;;;18.00;99.90;;;;;;4961907;28;20041;-75
2023/08/08 11:30:12;;;;;;;4.88;2.85;;;18.10;99.90;;;;;;4984870;28;20073;-77
2023/08/08 11:32:59;;;;;;;8.32;3.33;;;18.30;99.90;;;;;;4973850;28;20133;-77
2023/08/08 11:35:46;;;;;;;4.68;3.15;;;18.70;99.90;;;;;;4982766;28;20049;-77
2023/08/08 11:38:33;;;;;;;8.93;2.67;;;18.60;99.90;;;;;;4968928;28;20050;-78
2023/08/08 11:41:21;;;;;;;7.20;2.78;;;18.60;99.90;;;;;;4970816;28;20277;-77
2023/08/08 11:44:08;;;;;;;7.28;2.92;;;18.70;99.90;;;;;;4967729;28;20038;-77
2023/08/08 11:46:54;;;;;;;4.88;3.10;;;18.90;99.90;;;;;;4981717;28;20042;-76
2023/08/08 11:49:43;;;;;;;11.07;3.75;;;18.70;99.90;;;;;;4994672;28;20132;-76
2023/08/08 11:52:30;;;;;;;8.75;3.38;;;18.40;99.90;;;;;;4978024;28;20045;-77
2023/08/08 11:55:22;;;;;;;7.25;3.25;;;18.30;99.90;;;;;;4964075;28;20046;-77
2023/08/08 11:58:11;;;;;;;5.07;2.88;;;18.10;99.90;;;;;;4984049;28;20042;-77
2023/08/08 12:00:57;;;;;;;5.18;2.65;;;17.70;99.90;;;;;;4980076;28;20038;-76
2023/08/08 12:03:43;;;;;;;7.15;2.58;;;17.50;99.90;;;;;;4979937;28;20120;-77
2023/08/08 12:06:29;;;;;;;4.80;2.75;;;17.60;99.90;;;;;;4984449;28;20140;-77
2023/08/08 12:09:17;;;;;;;3.85;2.30;;;17.60;99.90;;;;;;5009105;28;20370;-78
2023/08/08 12:12:04;;;;;;;;;;;17.90;99.90;;;;;;5001544;28;20029;-76
2023/08/08 12:14:59;;;;;;;5.82;2.08;;;18.40;99.90;;;;;;4999843;28;20026;-77
2023/08/08 12:17:45;;;;;;;7.13;2.58;;;18.50;99.90;;;;;;4985490;28;20045;-77
2023/08/08 12:20:31;;;;;;;4.70;2.10;;;18.40;99.90;;;;;;4972425;28;20054;-76
2023/08/08 12:23:18;;;;;;;5.47;2.22;;;18.70;99.90;;;;;;4968471;28;20048;-76
2023/08/08 12:26:07;;;;;;;2.95;1.80;;;18.90;99.90;;;;;;4970123;28;20117;-76
2023/08/08 12:28:54;;;;;;;5.78;2.08;;;19.00;98.80;;;;;;4986503;28;20030;-76
2023/08/08 12:31:41;;;;;;;3.58;1.50;;;19.20;99.20;;;;;;4996484;28;20096;-77
2023/08/08 12:34:28;;;;;;;3.40;1.40;;;19.40;99.20;;;;;;4971942;28;20052;-76
2023/08/08 12:37:16;;;;;;;5.17;1.40;;;19.40;97.70;;;;;;4967992;28;20038;-76
2023/08/08 12:40:02;;;;;;;3.47;1.40;;;19.40;97.30;;;;;;4959137;28;20053;-75
2023/08/08 12:42:48;;;;;;;5.18;1.60;;;19.20;96.70;;;;;;4973108;28;20038;-77
2023/08/08 12:45:34;;;;;;;4.38;1.50;;;18.90;97.10;;;;;;4983724;28;20045;-77
2023/08/08 12:48:20;;;;;;;3.80;2.00;;;18.80;97.00;;;;;;4957199;28;20042;-76
2023/08/08 12:51:08;;;;;;;5.63;2.10;;;18.70;97.60;;;;;;4960741;28;20124;-76
2023/08/08 12:53:55;;;;;;;4.45;1.83;;;18.60;98.60;;;;;;5013308;28;20068;-76
2023/08/08 12:56:41;;;;;;;3.97;1.80;;;18.60;98.60;;;;;;5000496;28;20069;-76
2023/08/08 12:59:27;;;;;;;4.90;1.90;;;18.80;98.40;;;;;;4979584;28;20042;-76
2023/08/08 13:02:13;;;;;;;7.18;2.03;;;19.20;97.50;;;;;;4966342;28;20100;-76
2023/08/08 13:04:59;;;;;;;5.07;1.58;;;19.10;97.30;;;;;;4990948;28;20038;-76
2023/08/08 13:07:45;;;;;;;3.83;1.38;;;19.10;97.60;;;;;;4984123;28;20651;-77
2023/08/08 13:10:32;;;;;;;3.42;1.50;;;19.10;97.10;;;;;;4999066;28;20803;-76
2023/08/08 13:13:18;;;;;;;4.20;1.40;;;19.20;97.20;;;;;;4975030;28;20053;-77
2023/08/08 13:16:04;;;;;;;4.32;1.30;;;19.50;96.60;;;;;;4979052;28;20478;-76
2023/08/08 13:18:50;;;;;;;6.47;1.48;;;19.60;96.30;;;;;;4966246;28;20829;-75
2023/08/08 13:21:37;;;;;;;5.68;1.20;;;19.70;96.40;;;;;;4965385;28;20050;-76
2023/08/08 13:24:23;;;;;;;2.88;1.20;;;19.50;95.30;;;;;;4979701;28;20375;-76
2023/08/08 13:27:09;;;;;;;4.70;1.38;;;19.30;95.80;;;;;;4966021;28;20030;-76
2023/08/08 13:29:55;;;;;;;3.65;1.27;;;19.60;95.00;;;;;;4992089;28;20053;-76
2023/08/08 13:32:40;;;;;;;5.65;1.23;;;19.70;95.50;;;;;;4965235;28;20053;-77
2023/08/08 13:35:26;;;;;;;3.75;1.27;;;19.90;95.90;;;;;;4978673;28;20038;-75
2023/08/08 13:38:14;;;;;;;2.65;1.17;;;19.70;94.90;;;;;;4979131;28;20034;-76
2023/08/08 13:41:00;;;;;;;4.68;1.17;;;19.40;96.10;;;;;;4971810;28;20486;-77
2023/08/08 13:43:46;;;;;;;4.80;1.38;;;19.10;96.00;;;;;;4984265;28;20482;-76
2023/08/08 13:46:32;;;;;;;3.17;1.15;;;18.90;96.40;;;;;;4982096;28;20150;-76
2023/08/08 13:49:20;;;;;;;3.45;1.23;;;18.70;96.50;;;;;;4970127;28;20359;-76
2023/08/08 13:52:06;;;;;;;4.87;1.27;;;18.50;96.60;;;;;;4977940;28;20034;-75
2023/08/08 13:54:55;;;;;;;7.05;1.48;;;18.00;99.90;;;;;;4982228;28;20578;-75
2023/08/08 13:57:41;;;;;;;4.40;1.20;;;16.60;99.90;;;;;;4969593;28;20045;-76
2023/08/08 14:00:27;;;;;;;1.60;0.90;;;15.80;99.90;;;;;;4967108;28;20075;-75
2023/08/08 14:03:14;;;;;;;2.25;1.00;;;15.60;99.90;;;;;;4956982;28;20764;-76
2023/08/08 14:06:00;;;;;;;2.50;1.07;;;15.60;99.90;;;;;;4963207;28;20049;-75
2023/08/08 14:08:48;;;;;;;3.05;1.00;;;15.60;99.90;;;;;;4962135;28;20042;-76
2023/08/08 14:11:34;;;;;;;2.28;1.08;;;15.80;99.90;;;;;;4967367;28;20530;-76
2023/08/08 14:14:22;;;;;;;1.90;0.93;;;16.10;99.90;;;;;;4963230;28;20038;-76
2023/08/08 14:17:07;;;;;;;3.15;1.20;;;16.30;99.90;;;;;;4953169;28;20046;-76
2023/08/08 14:19:53;;;;;;;4.28;1.13;;;16.30;99.90;;;;;;4966578;28;20042;-76
2023/08/08 14:22:39;;;;;;;2.00;0.90;;;16.30;99.90;;;;;;4966713;28;20085;-76
2023/08/08 14:25:25;;;;;;;3.33;0.95;;;16.50;99.90;;;;;;4978745;28;20046;-77
2023/08/08 14:28:11;;;;;;;3.90;1.00;;;16.70;99.90;;;;;;4971815;28;20207;-76